sensor_id;sensor_type;location;lat;lon;timestamp;pressure;altitude;pressure_sealevel;temperature;humidity
7182;BME280;3632;42.724;23.298;2023-04-10T00:00:35;95374.88;;;8.41;87.89
7182;BME280;3632;42.724;23.298;2023-04-10T00:03:04;95545.78;;;9.30;88.03
7182;BME280;3632;42.724;23.298;2023-04-10T00:05:31;95547.66;;;9.15;87.65
7182;BME280;3632;42.724;23.298;2023-04-10T00:07:58;95493.38;;;9.40;87.73
7182;BME280;3632;42.724;23.298;2023-04-10T00:10:25;95411.13;;;8.68;87.65
7182;BME280;3632;42.724;23.298;2023-04-10T00:12:54;95494.44;;;9.48;87.45
7182;BME280;3632;42.724;23.298;2023-04-10T00:15:21;95493.22;;;9.54;87.58
7182;BME280;3632;42.724;23.298;2023-04-10T00:17:49;95492.22;;;9.44;88.10
7182;BME280;3632;42.724;23.298;2023-04-10T00:20:19;95435.00;;;9.02;88.07
7182;BME280;3632;42.724;23.298;2023-04-10T00:22:46;95132.88;;;7.18;86.20
7182;BME280;3632;42.724;23.298;2023-04-10T00:25:13;95484.78;;;9.53;85.07
7182;BME280;3632;42.724;23.298;2023-04-10T00:27:39;95480.91;;;9.24;85.16
7182;BME280;3632;42.724;23.298;2023-04-10T00:30:07;95500.00;;;9.30;84.92
7182;BME280;3632;42.724;23.298;2023-04-10T00:32:34;95550.84;;;8.81;84.33
7182;BME280;3632;42.724;23.298;2023-04-10T00:35:03;95485.06;;;9.25;84.59
7182;BME280;3632;42.724;23.298;2023-04-10T00:37:30;95494.19;;;9.40;83.73
7182;BME280;3632;42.724;23.298;2023-04-10T00:39:56;95485.59;;;9.17;83.41
7182;BME280;3632;42.724;23.298;2023-04-10T00:42:24;95479.06;;;9.26;83.56
7182;BME280;3632;42.724;23.298;2023-04-10T00:44:51;95480.88;;;9.37;81.68
7182;BME280;3632;42.724;23.298;2023-04-10T00:47:18;95491.50;;;9.18;82.60
7182;BME280;3632;42.724;23.298;2023-04-10T00:49:45;95344.81;;;8.47;82.77
7182;BME280;3632;42.724;23.298;2023-04-10T00:52:13;95482.06;;;9.44;82.58
7182;BME280;3632;42.724;23.298;2023-04-10T00:54:40;95499.63;;;8.61;83.20
7182;BME280;3632;42.724;23.298;2023-04-10T00:57:07;95482.22;;;9.53;83.01
7182;BME280;3632;42.724;23.298;2023-04-10T00:59:34;95480.63;;;9.63;82.93
7182;BME280;3632;42.724;23.298;2023-04-10T01:02:02;95478.56;;;9.69;82.81
7182;BME280;3632;42.724;23.298;2023-04-10T01:04:29;95478.38;;;9.72;83.36
7182;BME280;3632;42.724;23.298;2023-04-10T01:06:58;95474.06;;;9.72;84.05
7182;BME280;3632;42.724;23.298;2023-04-10T01:09:40;95468.41;;;9.69;86.38
7182;BME280;3632;42.724;23.298;2023-04-10T01:12:20;95457.88;;;9.73;87.71
7182;BME280;3632;42.724;23.298;2023-04-10T01:14:57;95460.09;;;9.67;89.39
7182;BME280;3632;42.724;23.298;2023-04-10T01:17:30;95392.22;;;9.20;91.53
7182;BME280;3632;42.724;23.298;2023-04-10T01:20:08;95464.44;;;9.64;91.60
7182;BME280;3632;42.724;23.298;2023-04-10T01:22:41;95457.97;;;9.60;92.12
7182;BME280;3632;42.724;23.298;2023-04-10T01:25:29;95467.34;;;9.36;94.10
7182;BME280;3632;42.724;23.298;2023-04-10T01:28:10;95323.28;;;8.40;97.43
7182;BME280;3632;42.724;23.298;2023-04-10T01:30:45;95461.72;;;9.20;97.15
7182;BME280;3632;42.724;23.298;2023-04-10T01:33:21;95484.38;;;9.23;97.02
7182;BME280;3632;42.724;23.298;2023-04-10T01:35:49;95344.53;;;8.39;97.11
7182;BME280;3632;42.724;23.298;2023-04-10T01:38:19;95474.88;;;9.01;96.75
7182;BME280;3632;42.724;23.298;2023-04-10T01:40:50;95452.53;;;8.94;97.60
7182;BME280;3632;42.724;23.298;2023-04-10T01:43:18;95535.50;;;8.44;97.41
7182;BME280;3632;42.724;23.298;2023-04-10T01:45:50;95379.47;;;8.48;97.82
7182;BME280;3632;42.724;23.298;2023-04-10T01:48:17;95456.53;;;8.73;99.43
7182;BME280;3632;42.724;23.298;2023-04-10T01:50:45;95458.75;;;8.90;99.58
7182;BME280;3632;42.724;23.298;2023-04-10T01:53:12;95459.13;;;8.96;98.79
7182;BME280;3632;42.724;23.298;2023-04-10T01:55:40;95357.22;;;8.39;98.92
7182;BME280;3632;42.724;23.298;2023-04-10T01:58:07;95179.53;;;7.16;97.31
7182;BME280;3632;42.724;23.298;2023-04-10T02:00:37;95336.78;;;8.28;97.16
7182;BME280;3632;42.724;23.298;2023-04-10T02:03:05;95458.38;;;9.07;97.20
7182;BME280;3632;42.724;23.298;2023-04-10T02:05:42;95459.56;;;9.14;96.99
7182;BME280;3632;42.724;23.298;2023-04-10T02:08:15;95144.56;;;6.70;94.36
7182;BME280;3632;42.724;23.298;2023-04-10T02:10:46;95449.50;;;9.12;95.20
7182;BME280;3632;42.724;23.298;2023-04-10T02:13:20;95445.03;;;9.16;94.86
7182;BME280;3632;42.724;23.298;2023-04-10T02:15:49;95340.53;;;8.48;94.26
7182;BME280;3632;42.724;23.298;2023-04-10T02:18:19;95364.25;;;8.10;95.30
7182;BME280;3632;42.724;23.298;2023-04-10T02:20:48;95438.78;;;8.96;95.70
7182;BME280;3632;42.724;23.298;2023-04-10T02:23:15;95438.38;;;9.02;95.87
7182;BME280;3632;42.724;23.298;2023-04-10T02:25:42;95462.59;;;8.83;95.63
7182;BME280;3632;42.724;23.298;2023-04-10T02:28:08;95440.78;;;8.67;96.24
7182;BME280;3632;42.724;23.298;2023-04-10T02:30:35;95460.50;;;8.64;96.82
7182;BME280;3632;42.724;23.298;2023-04-10T02:33:03;95435.72;;;8.55;96.45
7182;BME280;3632;42.724;23.298;2023-04-10T02:35:32;95315.41;;;7.56;97.78
7182;BME280;3632;42.724;23.298;2023-04-10T02:37:59;95457.06;;;8.52;98.25
7182;BME280;3632;42.724;23.298;2023-04-10T02:40:25;95430.03;;;8.64;97.61
7182;BME280;3632;42.724;23.298;2023-04-10T02:42:52;95424.13;;;8.63;97.42
7182;BME280;3632;42.724;23.298;2023-04-10T02:45:19;95424.63;;;8.68;96.43
7182;BME280;3632;42.724;23.298;2023-04-10T02:47:45;95417.50;;;8.74;96.79
7182;BME280;3632;42.724;23.298;2023-04-10T02:50:12;95420.97;;;8.73;96.45
7182;BME280;3632;42.724;23.298;2023-04-10T02:52:40;95410.19;;;8.69;95.97
7182;BME280;3632;42.724;23.298;2023-04-10T02:55:08;95411.81;;;8.70;96.84
7182;BME280;3632;42.724;23.298;2023-04-10T02:57:35;95354.47;;;8.42;97.82
7182;BME280;3632;42.724;23.298;2023-04-10T03:00:02;95409.28;;;8.57;97.46
7182;BME280;3632;42.724;23.298;2023-04-10T03:02:29;95405.63;;;8.61;98.68
7182;BME280;3632;42.724;23.298;2023-04-10T03:04:56;95189.75;;;7.27;97.64
7182;BME280;3632;42.724;23.298;2023-04-10T03:07:23;94819.81;;;4.91;96.95
7182;BME280;3632;42.724;23.298;2023-04-10T03:09:51;95416.78;;;8.71;96.67
7182;BME280;3632;42.724;23.298;2023-04-10T03:12:17;95410.09;;;8.58;97.60
7182;BME280;3632;42.724;23.298;2023-04-10T03:14:44;95410.69;;;8.61;97.84
7182;BME280;3632;42.724;23.298;2023-04-10T03:17:11;95300.50;;;7.90;98.17
7182;BME280;3632;42.724;23.298;2023-04-10T03:19:38;95264.81;;;7.67;97.22
7182;BME280;3632;42.724;23.298;2023-04-10T03:22:04;95421.28;;;8.55;97.20
7182;BME280;3632;42.724;23.298;2023-04-10T03:24:31;95302.13;;;7.40;96.91
7182;BME280;3632;42.724;23.298;2023-04-10T03:26:59;95420.09;;;8.48;97.70
7182;BME280;3632;42.724;23.298;2023-04-10T03:29:26;95417.66;;;8.47;98.08
7182;BME280;3632;42.724;23.298;2023-04-10T03:31:54;95358.16;;;7.62;98.75
7182;BME280;3632;42.724;23.298;2023-04-10T03:34:21;95183.13;;;6.61;99.37
7182;BME280;3632;42.724;23.298;2023-04-10T03:36:48;95130.47;;;5.87;100.00
7182;BME280;3632;42.724;23.298;2023-04-10T03:39:14;95434.03;;;7.65;100.00
7182;BME280;3632;42.724;23.298;2023-04-10T03:41:41;95360.06;;;7.07;100.00
7182;BME280;3632;42.724;23.298;2023-04-10T03:44:09;95422.25;;;7.64;100.00
7182;BME280;3632;42.724;23.298;2023-04-10T03:46:36;95426.09;;;7.57;100.00
7182;BME280;3632;42.724;23.298;2023-04-10T03:49:03;95436.66;;;7.64;100.00
7182;BME280;3632;42.724;23.298;2023-04-10T03:51:29;95431.25;;;7.56;100.00
7182;BME280;3632;42.724;23.298;2023-04-10T03:53:56;95432.50;;;7.50;100.00
7182;BME280;3632;42.724;23.298;2023-04-10T03:56:23;95489.75;;;7.40;100.00
7182;BME280;3632;42.724;23.298;2023-04-10T03:58:50;95251.72;;;6.17;100.00
7182;BME280;3632;42.724;23.298;2023-04-10T04:01:18;95435.16;;;7.34;100.00
7182;BME280;3632;42.724;23.298;2023-04-10T04:03:44;94941.91;;;3.93;100.00
7182;BME280;3632;42.724;23.298;2023-04-10T04:06:11;95442.03;;;7.20;100.00
7182;BME280;3632;42.724;23.298;2023-04-10T04:08:38;95446.56;;;7.15;100.00
7182;BME280;3632;42.724;23.298;2023-04-10T04:11:05;95366.28;;;6.48;100.00
7182;BME280;3632;42.724;23.298;2023-04-10T04:13:32;95128.59;;;5.22;100.00
7182;BME280;3632;42.724;23.298;2023-04-10T04:15:59;95453.16;;;7.44;100.00
7182;BME280;3632;42.724;23.298;2023-04-10T04:18:27;95395.16;;;7.13;100.00
7182;BME280;3632;42.724;23.298;2023-04-10T04:20:54;95457.06;;;7.62;100.00
7182;BME280;3632;42.724;23.298;2023-04-10T04:23:20;95448.44;;;7.65;100.00
7182;BME280;3632;42.724;23.298;2023-04-10T04:25:47;95311.91;;;6.80;100.00
7182;BME280;3632;42.724;23.298;2023-04-10T04:28:17;95449.72;;;7.85;100.00
7182;BME280;3632;42.724;23.298;2023-04-10T04:30:44;95393.03;;;7.59;100.00
7182;BME280;3632;42.724;23.298;2023-04-10T04:33:10;94954.06;;;4.57;100.00
7182;BME280;3632;42.724;23.298;2023-04-10T04:35:38;95304.31;;;7.07;100.00
7182;BME280;3632;42.724;23.298;2023-04-10T04:38:05;95462.53;;;8.08;100.00
7182;BME280;3632;42.724;23.298;2023-04-10T04:40:32;95200.50;;;6.40;100.00
7182;BME280;3632;42.724;23.298;2023-04-10T04:42:59;95451.56;;;8.08;100.00
7182;BME280;3632;42.724;23.298;2023-04-10T04:45:25;95454.00;;;8.09;100.00
7182;BME280;3632;42.724;23.298;2023-04-10T04:47:53;95404.44;;;7.78;100.00
7182;BME280;3632;42.724;23.298;2023-04-10T04:50:20;95400.47;;;7.74;100.00
7182;BME280;3632;42.724;23.298;2023-04-10T04:52:48;95455.94;;;8.18;99.96
7182;BME280;3632;42.724;23.298;2023-04-10T04:55:15;95366.47;;;7.77;99.28
7182;BME280;3632;42.724;23.298;2023-04-10T04:57:42;95177.66;;;6.67;98.92
7182;BME280;3632;42.724;23.298;2023-04-10T05:00:10;95469.66;;;8.54;98.36
7182;BME280;3632;42.724;23.298;2023-04-10T05:02:36;95286.31;;;7.49;98.54
7182;BME280;3632;42.724;23.298;2023-04-10T05:05:04;95467.31;;;8.63;97.93
7182;BME280;3632;42.724;23.298;2023-04-10T05:07:30;95471.78;;;8.73;98.55
7182;BME280;3632;42.724;23.298;2023-04-10T05:09:59;95305.56;;;7.64;97.38
7182;BME280;3632;42.724;23.298;2023-04-10T05:12:26;95478.91;;;8.55;99.13
7182;BME280;3632;42.724;23.298;2023-04-10T05:14:52;95476.88;;;8.60;99.20
7182;BME280;3632;42.724;23.298;2023-04-10T05:17:19;95256.19;;;7.32;98.68
7182;BME280;3632;42.724;23.298;2023-04-10T05:19:46;95422.00;;;8.45;97.16
7182;BME280;3632;42.724;23.298;2023-04-10T05:22:13;95480.00;;;8.76;97.47
7182;BME280;3632;42.724;23.298;2023-04-10T05:24:39;95461.63;;;8.73;97.37
7182;BME280;3632;42.724;23.298;2023-04-10T05:27:08;95395.91;;;8.17;96.06
7182;BME280;3632;42.724;23.298;2023-04-10T05:29:34;95483.38;;;8.64;95.10
7182;BME280;3632;42.724;23.298;2023-04-10T05:32:01;95480.53;;;9.05;94.05
7182;BME280;3632;42.724;23.298;2023-04-10T05:34:28;95474.94;;;9.12;93.32
7182;BME280;3632;42.724;23.298;2023-04-10T05:36:54;95464.03;;;9.23;92.28
7182;BME280;3632;42.724;23.298;2023-04-10T05:39:21;95475.19;;;9.33;91.83
7182;BME280;3632;42.724;23.298;2023-04-10T05:41:48;95297.88;;;8.27;90.68
7182;BME280;3632;42.724;23.298;2023-04-10T05:44:16;95234.22;;;7.81;89.79
7182;BME280;3632;42.724;23.298;2023-04-10T05:46:43;95479.91;;;9.50;89.32
7182;BME280;3632;42.724;23.298;2023-04-10T05:49:10;95428.78;;;8.19;89.12
7182;BME280;3632;42.724;23.298;2023-04-10T05:51:36;95469.00;;;9.48;89.30
7182;BME280;3632;42.724;23.298;2023-04-10T05:54:03;95474.00;;;9.50;88.68
7182;BME280;3632;42.724;23.298;2023-04-10T05:56:30;95485.31;;;9.70;88.38
7182;BME280;3632;42.724;23.298;2023-04-10T05:58:57;95354.84;;;9.09;86.69
7182;BME280;3632;42.724;23.298;2023-04-10T06:01:25;95458.88;;;9.83;85.88
7182;BME280;3632;42.724;23.298;2023-04-10T06:03:52;95089.81;;;7.06;85.57
7182;BME280;3632;42.724;23.298;2023-04-10T06:06:19;95475.66;;;10.21;85.27
7182;BME280;3632;42.724;23.298;2023-04-10T06:08:46;95486.47;;;10.35;84.62
7182;BME280;3632;42.724;23.298;2023-04-10T06:11:14;95477.88;;;10.36;83.68
7182;BME280;3632;42.724;23.298;2023-04-10T06:13:40;95026.00;;;7.61;82.26
7182;BME280;3632;42.724;23.298;2023-04-10T06:16:08;95486.56;;;10.45;83.12
7182;BME280;3632;42.724;23.298;2023-04-10T06:18:37;95474.66;;;10.68;83.08
7182;BME280;3632;42.724;23.298;2023-04-10T06:21:04;95469.09;;;10.63;82.86
7182;BME280;3632;42.724;23.298;2023-04-10T06:23:30;95458.19;;;10.49;82.61
7182;BME280;3632;42.724;23.298;2023-04-10T06:25:57;95403.75;;;10.17;82.04
7182;BME280;3632;42.724;23.298;2023-04-10T06:28:25;95467.03;;;10.90;80.55
7182;BME280;3632;42.724;23.298;2023-04-10T06:30:53;95420.81;;;10.39;80.09
7182;BME280;3632;42.724;23.298;2023-04-10T06:33:19;95460.53;;;10.75;81.12
7182;BME280;3632;42.724;23.298;2023-04-10T06:35:48;95437.34;;;10.33;79.83
7182;BME280;3632;42.724;23.298;2023-04-10T06:38:15;95466.34;;;10.77;81.39
7182;BME280;3632;42.724;23.298;2023-04-10T06:40:41;95471.66;;;10.85;80.94
7182;BME280;3632;42.724;23.298;2023-04-10T06:43:08;95312.94;;;9.94;79.92
7182;BME280;3632;42.724;23.298;2023-04-10T06:45:35;95392.88;;;10.48;79.03
7182;BME280;3632;42.724;23.298;2023-04-10T06:48:03;95522.66;;;10.85;78.40
7182;BME280;3632;42.724;23.298;2023-04-10T06:50:30;95472.00;;;11.03;79.78
7182;BME280;3632;42.724;23.298;2023-04-10T06:52:58;95438.88;;;10.47;79.83
7182;BME280;3632;42.724;23.298;2023-04-10T06:55:25;95475.56;;;11.11;79.63
7182;BME280;3632;42.724;23.298;2023-04-10T06:57:52;95477.19;;;11.01;78.77
7182;BME280;3632;42.724;23.298;2023-04-10T07:00:20;95355.66;;;10.01;78.79
7182;BME280;3632;42.724;23.298;2023-04-10T07:02:47;95424.50;;;10.46;80.98
7182;BME280;3632;42.724;23.298;2023-04-10T07:05:14;95400.06;;;10.54;80.87
7182;BME280;3632;42.724;23.298;2023-04-10T07:07:42;95277.91;;;9.75;80.49
7182;BME280;3632;42.724;23.298;2023-04-10T07:10:10;95477.78;;;10.93;78.68
7182;BME280;3632;42.724;23.298;2023-04-10T07:12:38;95411.22;;;10.07;79.10
7182;BME280;3632;42.724;23.298;2023-04-10T07:15:06;95493.34;;;10.90;80.27
7182;BME280;3632;42.724;23.298;2023-04-10T07:17:33;95480.00;;;10.98;79.95
7182;BME280;3632;42.724;23.298;2023-04-10T07:19:59;95439.31;;;10.74;79.86
7182;BME280;3632;42.724;23.298;2023-04-10T07:22:26;95477.09;;;11.03;80.41
7182;BME280;3632;42.724;23.298;2023-04-10T07:24:53;95340.41;;;10.24;80.74
7182;BME280;3632;42.724;23.298;2023-04-10T07:27:22;95476.97;;;11.04;79.46
7182;BME280;3632;42.724;23.298;2023-04-10T07:29:49;95264.03;;;8.87;79.61
7182;BME280;3632;42.724;23.298;2023-04-10T07:32:16;95477.09;;;11.03;77.54
7182;BME280;3632;42.724;23.298;2023-04-10T07:34:43;95482.75;;;11.28;77.66
7182;BME280;3632;42.724;23.298;2023-04-10T07:37:11;95474.94;;;11.30;78.97
7182;BME280;3632;42.724;23.298;2023-04-10T07:39:37;95430.75;;;10.64;77.24
7182;BME280;3632;42.724;23.298;2023-04-10T07:42:04;94958.75;;;7.79;77.57
7182;BME280;3632;42.724;23.298;2023-04-10T07:44:33;95484.94;;;11.33;76.88
7182;BME280;3632;42.724;23.298;2023-04-10T07:47:00;95502.63;;;11.57;76.25
7182;BME280;3632;42.724;23.298;2023-04-10T07:49:26;94907.69;;;7.95;75.16
7182;BME280;3632;42.724;23.298;2023-04-10T07:51:53;95416.16;;;11.20;74.11
7182;BME280;3632;42.724;23.298;2023-04-10T07:54:21;95488.38;;;11.86;74.02
7182;BME280;3632;42.724;23.298;2023-04-10T07:56:50;95489.41;;;11.95;72.15
7182;BME280;3632;42.724;23.298;2023-04-10T07:59:17;95472.22;;;12.17;73.15
7182;BME280;3632;42.724;23.298;2023-04-10T08:01:46;95466.16;;;12.18;72.58
7182;BME280;3632;42.724;23.298;2023-04-10T08:04:13;95166.19;;;10.26;72.51
7182;BME280;3632;42.724;23.298;2023-04-10T08:06:40;95466.94;;;12.40;72.08
7182;BME280;3632;42.724;23.298;2023-04-10T08:09:07;95359.56;;;11.58;71.49
7182;BME280;3632;42.724;23.298;2023-04-10T08:11:34;95464.06;;;12.54;69.79
7182;BME280;3632;42.724;23.298;2023-04-10T08:14:02;95461.69;;;12.62;70.53
7182;BME280;3632;42.724;23.298;2023-04-10T08:16:31;95456.09;;;12.68;68.44
7182;BME280;3632;42.724;23.298;2023-04-10T08:19:00;95458.53;;;12.79;67.11
7182;BME280;3632;42.724;23.298;2023-04-10T08:21:29;95330.56;;;12.10;66.47
7182;BME280;3632;42.724;23.298;2023-04-10T08:23:57;94907.09;;;9.34;66.33
7182;BME280;3632;42.724;23.298;2023-04-10T08:26:25;95438.94;;;12.89;64.74
7182;BME280;3632;42.724;23.298;2023-04-10T08:28:53;95457.75;;;12.88;65.52
7182;BME280;3632;42.724;23.298;2023-04-10T08:31:22;95456.25;;;13.16;65.24
7182;BME280;3632;42.724;23.298;2023-04-10T08:33:50;95406.63;;;13.07;66.41
7182;BME280;3632;42.724;23.298;2023-04-10T08:36:19;95454.16;;;13.59;65.16
7182;BME280;3632;42.724;23.298;2023-04-10T08:38:47;95449.84;;;13.79;62.96
7182;BME280;3632;42.724;23.298;2023-04-10T08:41:15;95449.84;;;13.50;62.30
7182;BME280;3632;42.724;23.298;2023-04-10T08:43:42;95384.63;;;12.76;61.88
7182;BME280;3632;42.724;23.298;2023-04-10T08:46:10;95460.31;;;13.18;62.78
7182;BME280;3632;42.724;23.298;2023-04-10T08:48:38;95449.00;;;13.21;64.23
7182;BME280;3632;42.724;23.298;2023-04-10T08:51:08;95460.34;;;13.38;61.89
7182;BME280;3632;42.724;23.298;2023-04-10T08:53:42;95029.06;;;10.82;60.80
7182;BME280;3632;42.724;23.298;2023-04-10T08:56:12;95458.19;;;13.23;59.88
7182;BME280;3632;42.724;23.298;2023-04-10T08:58:40;95385.44;;;12.86;59.32
7182;BME280;3632;42.724;23.298;2023-04-10T09:01:08;95160.84;;;11.03;57.33
7182;BME280;3632;42.724;23.298;2023-04-10T09:03:34;95423.69;;;13.47;58.74
7182;BME280;3632;42.724;23.298;2023-04-10T09:06:02;95399.19;;;13.35;57.15
7182;BME280;3632;42.724;23.298;2023-04-10T09:08:30;95388.91;;;13.15;57.05
7182;BME280;3632;42.724;23.298;2023-04-10T09:10:58;95442.03;;;13.90;56.50
7182;BME280;3632;42.724;23.298;2023-04-10T09:13:43;95431.91;;;13.79;56.36
7182;BME280;3632;42.724;23.298;2023-04-10T09:16:14;95437.19;;;13.39;55.24
7182;BME280;3632;42.724;23.298;2023-04-10T09:18:43;95355.97;;;12.72;55.83
7182;BME280;3632;42.724;23.298;2023-04-10T09:21:11;95426.38;;;13.26;55.89
7182;BME280;3632;42.724;23.298;2023-04-10T09:23:39;95449.19;;;13.48;56.14
7182;BME280;3632;42.724;23.298;2023-04-10T09:26:24;95284.84;;;12.57;56.75
7182;BME280;3632;42.724;23.298;2023-04-10T09:28:56;95431.69;;;13.53;56.64
7182;BME280;3632;42.724;23.298;2023-04-10T09:31:27;95443.50;;;12.86;56.18
7182;BME280;3632;42.724;23.298;2023-04-10T09:34:07;95320.16;;;12.82;57.76
7182;BME280;3632;42.724;23.298;2023-04-10T09:36:34;94937.09;;;9.72;58.79
7182;BME280;3632;42.724;23.298;2023-04-10T09:39:01;95438.94;;;13.48;59.82
7182;BME280;3632;42.724;23.298;2023-04-10T09:41:29;95448.50;;;13.56;59.61
7182;BME280;3632;42.724;23.298;2023-04-10T09:44:06;95435.16;;;13.43;59.26
7182;BME280;3632;42.724;23.298;2023-04-10T09:46:33;95353.28;;;13.03;59.64
7182;BME280;3632;42.724;23.298;2023-04-10T09:49:00;95429.38;;;13.50;60.49
7182;BME280;3632;42.724;23.298;2023-04-10T09:51:30;95382.03;;;13.16;60.60
7182;BME280;3632;42.724;23.298;2023-04-10T09:53:58;95269.25;;;12.69;59.78
7182;BME280;3632;42.724;23.298;2023-04-10T09:56:29;95423.03;;;13.54;59.90
7182;BME280;3632;42.724;23.298;2023-04-10T09:58:57;95422.59;;;13.11;61.31
7182;BME280;3632;42.724;23.298;2023-04-10T10:01:25;95406.41;;;12.30;62.10
7182;BME280;3632;42.724;23.298;2023-04-10T10:03:53;95431.13;;;13.00;62.27
7182;BME280;3632;42.724;23.298;2023-04-10T10:06:21;95300.13;;;12.28;61.36
7182;BME280;3632;42.724;23.298;2023-04-10T10:08:49;95147.13;;;11.55;61.74
7182;BME280;3632;42.724;23.298;2023-04-10T10:11:18;94965.16;;;9.93;59.56
7182;BME280;3632;42.724;23.298;2023-04-10T10:13:49;95414.25;;;13.38;59.70
7182;BME280;3632;42.724;23.298;2023-04-10T10:16:20;95414.75;;;13.12;59.86
7182;BME280;3632;42.724;23.298;2023-04-10T10:18:54;95403.72;;;13.12;60.46
7182;BME280;3632;42.724;23.298;2023-04-10T10:21:27;95424.06;;;13.13;61.02
7182;BME280;3632;42.724;23.298;2023-04-10T10:23:57;95409.13;;;13.18;60.48
7182;BME280;3632;42.724;23.298;2023-04-10T10:26:26;95404.94;;;13.17;60.36
7182;BME280;3632;42.724;23.298;2023-04-10T10:28:55;95307.28;;;12.44;59.33
7182;BME280;3632;42.724;23.298;2023-04-10T10:31:24;95190.50;;;10.83;59.98
7182;BME280;3632;42.724;23.298;2023-04-10T10:33:51;95402.59;;;13.05;59.78
7182;BME280;3632;42.724;23.298;2023-04-10T10:36:19;95406.63;;;13.07;59.61
7182;BME280;3632;42.724;23.298;2023-04-10T10:38:52;95392.66;;;13.11;61.15
7182;BME280;3632;42.724;23.298;2023-04-10T10:41:25;95386.78;;;13.40;60.13
7182;BME280;3632;42.724;23.298;2023-04-10T10:44:00;95238.84;;;12.95;58.59
7182;BME280;3632;42.724;23.298;2023-04-10T10:46:36;95381.84;;;14.13;55.97
7182;BME280;3632;42.724;23.298;2023-04-10T10:49:03;95265.19;;;13.72;54.18
7182;BME280;3632;42.724;23.298;2023-04-10T10:51:43;95250.53;;;13.92;52.60
7182;BME280;3632;42.724;23.298;2023-04-10T10:54:27;95314.50;;;14.58;53.00
7182;BME280;3632;42.724;23.298;2023-04-10T10:56:54;95362.66;;;14.91;52.19
7182;BME280;3632;42.724;23.298;2023-04-10T11:02:22;95381.59;;;14.16;51.70
7182;BME280;3632;42.724;23.298;2023-04-10T11:04:49;95288.63;;;14.14;53.13
7182;BME280;3632;42.724;23.298;2023-04-10T11:07:16;95346.41;;;14.73;52.51
7182;BME280;3632;42.724;23.298;2023-04-10T11:09:45;95363.13;;;15.04;52.16
7182;BME280;3632;42.724;23.298;2023-04-10T11:12:13;95342.59;;;15.04;52.07
7182;BME280;3632;42.724;23.298;2023-04-10T11:14:40;95351.06;;;14.87;52.56
7182;BME280;3632;42.724;23.298;2023-04-10T11:17:09;95353.94;;;15.20;53.65
7182;BME280;3632;42.724;23.298;2023-04-10T11:19:57;95342.50;;;15.49;53.81
7182;BME280;3632;42.724;23.298;2023-04-10T11:22:25;95358.72;;;15.85;51.75
7182;BME280;3632;42.724;23.298;2023-04-10T11:24:59;95343.31;;;16.11;50.60
7182;BME280;3632;42.724;23.298;2023-04-10T11:27:42;95343.16;;;16.46;48.80
7182;BME280;3632;42.724;23.298;2023-04-10T11:30:33;95336.59;;;16.52;48.20
7182;BME280;3632;42.724;23.298;2023-04-10T11:33:02;95330.91;;;16.66;48.13
7182;BME280;3632;42.724;23.298;2023-04-10T11:35:30;95330.66;;;17.02;46.69
7182;BME280;3632;42.724;23.298;2023-04-10T11:38:14;95333.28;;;17.26;47.07
7182;BME280;3632;42.724;23.298;2023-04-10T11:41:08;95328.72;;;16.87;46.79
7182;BME280;3632;42.724;23.298;2023-04-10T11:43:35;95309.00;;;16.62;47.48
7182;BME280;3632;42.724;23.298;2023-04-10T11:46:06;95260.22;;;16.53;48.19
7182;BME280;3632;42.724;23.298;2023-04-10T11:48:33;95332.84;;;16.80;47.70
7182;BME280;3632;42.724;23.298;2023-04-10T11:51:09;95349.19;;;16.29;49.37
7182;BME280;3632;42.724;23.298;2023-04-10T11:53:36;95217.78;;;15.73;48.93
7182;BME280;3632;42.724;23.298;2023-04-10T11:56:04;95333.84;;;16.12;50.43
7182;BME280;3632;42.724;23.298;2023-04-10T11:58:33;95283.53;;;15.83;50.09
7182;BME280;3632;42.724;23.298;2023-04-10T12:01:01;95333.50;;;15.63;50.77
7182;BME280;3632;42.724;23.298;2023-04-10T12:03:35;95322.84;;;15.40;51.47
7182;BME280;3632;42.724;23.298;2023-04-10T12:06:05;94995.38;;;13.09;50.73
7182;BME280;3632;42.724;23.298;2023-04-10T12:08:35;95111.69;;;13.61;51.66
7182;BME280;3632;42.724;23.298;2023-04-10T12:11:02;95329.16;;;14.93;53.38
7182;BME280;3632;42.724;23.298;2023-04-10T12:13:30;95332.25;;;14.69;53.74
7182;BME280;3632;42.724;23.298;2023-04-10T12:15:58;95264.63;;;14.43;54.83
7182;BME280;3632;42.724;23.298;2023-04-10T12:18:26;95330.31;;;14.53;57.36
7182;BME280;3632;42.724;23.298;2023-04-10T12:20:54;95336.59;;;14.32;58.51
7182;BME280;3632;42.724;23.298;2023-04-10T12:23:22;95331.16;;;13.98;61.44
7182;BME280;3632;42.724;23.298;2023-04-10T12:25:51;95096.97;;;11.84;65.51
7182;BME280;3632;42.724;23.298;2023-04-10T12:28:19;95279.84;;;12.46;65.62
7182;BME280;3632;42.724;23.298;2023-04-10T12:30:48;95358.47;;;12.63;67.94
7182;BME280;3632;42.724;23.298;2023-04-10T12:33:20;95110.72;;;10.50;70.80
7182;BME280;3632;42.724;23.298;2023-04-10T12:35:47;95232.38;;;11.22;77.46
7182;BME280;3632;42.724;23.298;2023-04-10T12:38:14;95370.38;;;11.71;78.56
7182;BME280;3632;42.724;23.298;2023-04-10T12:40:58;95393.78;;;11.56;79.17
7182;BME280;3632;42.724;23.298;2023-04-10T12:43:30;95386.81;;;11.26;80.73
7182;BME280;3632;42.724;23.298;2023-04-10T12:45:58;95394.41;;;11.05;80.52
7182;BME280;3632;42.724;23.298;2023-04-10T12:48:25;95342.03;;;10.69;84.90
7182;BME280;3632;42.724;23.298;2023-04-10T12:50:52;94858.75;;;7.59;85.57
7182;BME280;3632;42.724;23.298;2023-04-10T12:53:20;95370.97;;;10.68;84.42
7182;BME280;3632;42.724;23.298;2023-04-10T12:56:02;95357.75;;;10.85;87.95
7182;BME280;3632;42.724;23.298;2023-04-10T12:58:30;95344.53;;;11.12;88.58
7182;BME280;3632;42.724;23.298;2023-04-10T13:01:07;94919.84;;;8.58;86.82
7182;BME280;3632;42.724;23.298;2023-04-10T13:03:35;94644.22;;;7.34;87.95
7182;BME280;3632;42.724;23.298;2023-04-10T13:06:04;95280.09;;;11.52;86.29
7182;BME280;3632;42.724;23.298;2023-04-10T13:08:31;95325.06;;;12.15;84.98
7182;BME280;3632;42.724;23.298;2023-04-10T13:10:58;95168.25;;;10.10;80.61
7182;BME280;3632;42.724;23.298;2023-04-10T13:13:29;95342.66;;;12.39;80.89
7182;BME280;3632;42.724;23.298;2023-04-10T13:15:57;95319.03;;;12.56;83.20
7182;BME280;3632;42.724;23.298;2023-04-10T13:18:24;95125.38;;;11.60;80.38
7182;BME280;3632;42.724;23.298;2023-04-10T13:20:50;95309.16;;;13.01;78.99
7182;BME280;3632;42.724;23.298;2023-04-10T13:23:17;95255.94;;;13.33;77.62
7182;BME280;3632;42.724;23.298;2023-04-10T13:25:44;95030.69;;;12.50;75.93